Rochester, NY

6:25 AM EDT on September 19, 2014 (GMT -0400)
Monroe Ave at Cobbs Hill | Change Station
CLOSE
Current Station
Personal Weather Station
Location: Rochester, NY
Elevation: 528 ft
Nearby Weather Stations

Elev 528 ft 43.14 °N, 77.58 °W | Updated 2 minutes ago

Clear
Clear
42.2 °F
Feels Like 42 °F
N
0.0
Wind Variable Wind from ESE
Gusts 2.0 mph

Today
High -- | Low -- °F
--% Chance of Precip.
Yesterday
High -- | Low -- °F
Precip. -- in
6:54 AM 7:13 PM
Waning Crescent, 20% visible
Pressure 30.33 in
Visibility 10.0 miles
Clouds Few 4000 ft
Windchill 42 °F
Dew Point 35 °F
Humidity 75%
Rainfall 0.00 in
Snow Depth Not available.
UV 0 out of 12
Pollen 3.00 out of 12
Air Quality Not available.
Flu Activity Not available.
METAR KROC 190954Z 10005KT 10SM FEW040 06/02 A3031 RMK AO2 SLP269 T00560017

More Conditions Fewer Conditions

Pressure 30.33 in
Visibility 10.0 miles
Clouds Few 4000 ft
Windchill 42 °F
Dew Point 35 °F
Humidity 75%
Rainfall 0.00 in
Snow Depth Not available.
UV 0 out of 12
Pollen 3.00 out of 12
Air Quality Not available.
Flu Activity Not available.
METAR KROC 190954Z 10005KT 10SM FEW040 06/02 A3031 RMK AO2 SLP269 T00560017

More Conditions Fewer Conditions

10-Day Weather Forecast

Almanac

Astronomy

Sep. 19, 2014 Rise Set
Actual Time 6:54 AM EDT 7:13 PM EDT
Civil Twilight 6:25 AM EDT 7:41 PM EDT
Nautical Twilight 5:52 AM EDT 8:15 PM EDT
Astronomical Twilight 5:17 AM EDT 8:49 PM EDT
Moon 2:32 AM EDT 4:45 PM EDT
Length of Visible Light 13h 15m
Length of Day
12h 18m
Tomorrow will be 2m 55s shorter.
Waning Crescent, 20% of the Moon is Illuminated
Today
Waning Crescent
Sep 24
New
Oct 1
First Quarter
Oct 8
Full
Oct 15
Last Quarter

Today's Extremes

State Highs State Lows

Community

WunderPhotos

Upload Photos

1,754,583 photos uploaded!

Nearby

Air Quality

  Air Quality AQ Index Pollutant
Friday Good
OZONE
Friday Good
PM2.5

Snow Depth

Station Depth Elevation
No new snow has been reported.

Earthquake Activity

City Distance Mag. Time & Date
No recent earthquake activity has been reported nearby.
Minimum magnitude displayed is 2.5.

Coastal Water Temperatures

Place Temperature
Buffalo, NY 66.9 °F
Alexandria Bay, NY 64.9 °F

Nearby Weather Stations